sensor_id;sensor_type;location;lat;lon;timestamp;P1;durP1;ratioP1;P2;durP2;ratioP2
3443;SDS011;1736;52.068;6.968;2022-07-23T00:00:47;8.70;;;6.20;;
3443;SDS011;1736;52.068;6.968;2022-07-23T00:03:13;10.07;;;6.70;;
3443;SDS011;1736;52.068;6.968;2022-07-23T00:05:40;12.57;;;6.57;;
3443;SDS011;1736;52.068;6.968;2022-07-23T00:08:06;9.17;;;6.50;;
3443;SDS011;1736;52.068;6.968;2022-07-23T00:10:33;9.37;;;6.70;;
3443;SDS011;1736;52.068;6.968;2022-07-23T00:13:00;9.30;;;7.40;;
3443;SDS011;1736;52.068;6.968;2022-07-23T00:15:28;7.40;;;6.13;;
3443;SDS011;1736;52.068;6.968;2022-07-23T00:17:55;10.13;;;6.50;;
3443;SDS011;1736;52.068;6.968;2022-07-23T00:20:21;13.43;;;6.57;;
3443;SDS011;1736;52.068;6.968;2022-07-23T00:22:48;7.80;;;5.80;;
3443;SDS011;1736;52.068;6.968;2022-07-23T00:25:15;8.80;;;6.20;;
3443;SDS011;1736;52.068;6.968;2022-07-23T00:27:42;7.73;;;6.40;;
3443;SDS011;1736;52.068;6.968;2022-07-23T00:30:10;7.77;;;6.30;;
3443;SDS011;1736;52.068;6.968;2022-07-23T00:32:46;8.30;;;6.20;;
3443;SDS011;1736;52.068;6.968;2022-07-23T00:35:13;8.30;;;6.50;;
3443;SDS011;1736;52.068;6.968;2022-07-23T00:37:39;10.80;;;6.83;;
3443;SDS011;1736;52.068;6.968;2022-07-23T00:40:06;8.70;;;6.70;;
3443;SDS011;1736;52.068;6.968;2022-07-23T00:42:34;7.23;;;6.53;;
3443;SDS011;1736;52.068;6.968;2022-07-23T00:45:00;9.60;;;6.03;;
3443;SDS011;1736;52.068;6.968;2022-07-23T00:47:27;10.00;;;6.23;;
3443;SDS011;1736;52.068;6.968;2022-07-23T00:49:55;7.90;;;5.97;;
3443;SDS011;1736;52.068;6.968;2022-07-23T00:52:21;8.07;;;6.67;;
3443;SDS011;1736;52.068;6.968;2022-07-23T00:54:48;7.50;;;6.33;;
3443;SDS011;1736;52.068;6.968;2022-07-23T00:57:15;8.90;;;6.23;;
3443;SDS011;1736;52.068;6.968;2022-07-23T00:59:42;11.37;;;6.27;;
3443;SDS011;1736;52.068;6.968;2022-07-23T01:02:08;6.70;;;5.80;;
3443;SDS011;1736;52.068;6.968;2022-07-23T01:04:35;9.80;;;5.90;;
3443;SDS011;1736;52.068;6.968;2022-07-23T01:07:03;7.33;;;6.17;;
3443;SDS011;1736;52.068;6.968;2022-07-23T01:09:30;7.70;;;6.07;;
3443;SDS011;1736;52.068;6.968;2022-07-23T01:11:57;6.90;;;5.80;;
3443;SDS011;1736;52.068;6.968;2022-07-23T01:14:25;7.90;;;7.10;;
3443;SDS011;1736;52.068;6.968;2022-07-23T01:16:52;7.27;;;5.70;;
3443;SDS011;1736;52.068;6.968;2022-07-23T01:19:18;13.40;;;6.63;;
3443;SDS011;1736;52.068;6.968;2022-07-23T01:21:47;7.47;;;6.30;;
3443;SDS011;1736;52.068;6.968;2022-07-23T01:24:16;7.93;;;6.57;;
3443;SDS011;1736;52.068;6.968;2022-07-23T01:26:44;10.67;;;6.80;;
3443;SDS011;1736;52.068;6.968;2022-07-23T01:29:12;7.13;;;6.23;;
3443;SDS011;1736;52.068;6.968;2022-07-23T01:31:39;9.37;;;6.73;;
3443;SDS011;1736;52.068;6.968;2022-07-23T01:34:06;10.03;;;6.40;;
3443;SDS011;1736;52.068;6.968;2022-07-23T01:36:33;9.23;;;6.93;;
3443;SDS011;1736;52.068;6.968;2022-07-23T01:39:00;7.20;;;6.50;;
3443;SDS011;1736;52.068;6.968;2022-07-23T01:41:28;7.20;;;6.50;;
3443;SDS011;1736;52.068;6.968;2022-07-23T01:43:54;7.60;;;6.13;;
3443;SDS011;1736;52.068;6.968;2022-07-23T01:46:21;9.90;;;6.40;;
3443;SDS011;1736;52.068;6.968;2022-07-23T01:48:48;13.33;;;6.83;;
3443;SDS011;1736;52.068;6.968;2022-07-23T01:51:15;10.53;;;6.53;;
3443;SDS011;1736;52.068;6.968;2022-07-23T01:53:41;9.40;;;6.43;;
3443;SDS011;1736;52.068;6.968;2022-07-23T01:56:08;13.50;;;6.63;;
3443;SDS011;1736;52.068;6.968;2022-07-23T01:58:36;7.70;;;6.40;;
3443;SDS011;1736;52.068;6.968;2022-07-23T02:01:02;9.10;;;6.33;;
3443;SDS011;1736;52.068;6.968;2022-07-23T02:03:29;11.23;;;6.53;;
3443;SDS011;1736;52.068;6.968;2022-07-23T02:05:55;7.53;;;6.00;;
3443;SDS011;1736;52.068;6.968;2022-07-23T02:08:22;7.23;;;6.20;;
3443;SDS011;1736;52.068;6.968;2022-07-23T02:10:48;6.63;;;6.03;;
3443;SDS011;1736;52.068;6.968;2022-07-23T02:13:16;7.27;;;6.50;;
3443;SDS011;1736;52.068;6.968;2022-07-23T02:15:44;7.30;;;5.83;;
3443;SDS011;1736;52.068;6.968;2022-07-23T02:18:11;9.23;;;5.83;;
3443;SDS011;1736;52.068;6.968;2022-07-23T02:20:37;8.00;;;6.30;;
3443;SDS011;1736;52.068;6.968;2022-07-23T02:23:05;7.30;;;6.27;;
3443;SDS011;1736;52.068;6.968;2022-07-23T02:25:32;6.80;;;5.53;;
3443;SDS011;1736;52.068;6.968;2022-07-23T02:27:59;18.43;;;5.80;;
3443;SDS011;1736;52.068;6.968;2022-07-23T02:30:25;8.07;;;5.93;;
3443;SDS011;1736;52.068;6.968;2022-07-23T02:32:54;7.50;;;6.37;;
3443;SDS011;1736;52.068;6.968;2022-07-23T02:35:20;9.30;;;6.73;;
3443;SDS011;1736;52.068;6.968;2022-07-23T02:37:47;7.80;;;6.10;;
3443;SDS011;1736;52.068;6.968;2022-07-23T02:40:13;10.67;;;6.27;;
3443;SDS011;1736;52.068;6.968;2022-07-23T02:42:40;7.07;;;6.27;;
3443;SDS011;1736;52.068;6.968;2022-07-23T02:45:07;11.03;;;7.10;;
3443;SDS011;1736;52.068;6.968;2022-07-23T02:47:34;7.03;;;6.17;;
3443;SDS011;1736;52.068;6.968;2022-07-23T02:50:02;10.30;;;6.80;;
3443;SDS011;1736;52.068;6.968;2022-07-23T02:52:30;8.60;;;6.30;;
3443;SDS011;1736;52.068;6.968;2022-07-23T02:54:57;8.40;;;6.17;;
3443;SDS011;1736;52.068;6.968;2022-07-23T02:57:23;8.13;;;6.53;;
3443;SDS011;1736;52.068;6.968;2022-07-23T02:59:50;9.20;;;6.70;;
3443;SDS011;1736;52.068;6.968;2022-07-23T03:02:16;10.63;;;6.90;;
3443;SDS011;1736;52.068;6.968;2022-07-23T03:04:43;8.03;;;6.40;;
3443;SDS011;1736;52.068;6.968;2022-07-23T03:07:11;8.33;;;6.20;;
3443;SDS011;1736;52.068;6.968;2022-07-23T03:09:37;11.50;;;6.93;;
3443;SDS011;1736;52.068;6.968;2022-07-23T03:12:04;9.80;;;7.13;;
3443;SDS011;1736;52.068;6.968;2022-07-23T03:14:31;6.90;;;6.03;;
3443;SDS011;1736;52.068;6.968;2022-07-23T03:16:58;10.23;;;6.73;;
3443;SDS011;1736;52.068;6.968;2022-07-23T03:19:25;8.40;;;7.00;;
3443;SDS011;1736;52.068;6.968;2022-07-23T03:21:52;7.07;;;6.37;;
3443;SDS011;1736;52.068;6.968;2022-07-23T03:24:20;8.00;;;6.30;;
3443;SDS011;1736;52.068;6.968;2022-07-23T03:26:48;10.33;;;6.50;;
3443;SDS011;1736;52.068;6.968;2022-07-23T03:29:15;10.13;;;6.60;;
3443;SDS011;1736;52.068;6.968;2022-07-23T03:31:42;11.13;;;7.20;;
3443;SDS011;1736;52.068;6.968;2022-07-23T03:34:09;8.70;;;7.40;;
3443;SDS011;1736;52.068;6.968;2022-07-23T03:36:35;7.40;;;6.70;;
3443;SDS011;1736;52.068;6.968;2022-07-23T03:39:02;8.70;;;7.00;;
3443;SDS011;1736;52.068;6.968;2022-07-23T03:41:30;8.60;;;6.60;;
3443;SDS011;1736;52.068;6.968;2022-07-23T03:43:57;8.30;;;7.00;;
3443;SDS011;1736;52.068;6.968;2022-07-23T03:46:23;14.83;;;7.20;;
3443;SDS011;1736;52.068;6.968;2022-07-23T03:48:50;7.40;;;6.70;;
3443;SDS011;1736;52.068;6.968;2022-07-23T03:51:16;8.70;;;7.10;;
3443;SDS011;1736;52.068;6.968;2022-07-23T03:53:43;9.97;;;7.33;;
3443;SDS011;1736;52.068;6.968;2022-07-23T03:56:09;9.40;;;6.90;;
3443;SDS011;1736;52.068;6.968;2022-07-23T03:58:37;9.80;;;8.00;;
3443;SDS011;1736;52.068;6.968;2022-07-23T04:01:04;8.90;;;7.73;;
3443;SDS011;1736;52.068;6.968;2022-07-23T04:03:30;9.90;;;7.47;;
3443;SDS011;1736;52.068;6.968;2022-07-23T04:05:57;11.40;;;7.40;;
3443;SDS011;1736;52.068;6.968;2022-07-23T04:08:23;10.13;;;7.63;;
3443;SDS011;1736;52.068;6.968;2022-07-23T04:10:50;10.73;;;6.87;;
3443;SDS011;1736;52.068;6.968;2022-07-23T04:13:17;8.97;;;6.93;;
3443;SDS011;1736;52.068;6.968;2022-07-23T04:15:45;8.43;;;7.07;;
3443;SDS011;1736;52.068;6.968;2022-07-23T04:18:12;9.47;;;7.63;;
3443;SDS011;1736;52.068;6.968;2022-07-23T04:20:39;11.57;;;8.77;;
3443;SDS011;1736;52.068;6.968;2022-07-23T04:23:05;12.97;;;7.90;;
3443;SDS011;1736;52.068;6.968;2022-07-23T04:25:32;11.80;;;7.43;;
3443;SDS011;1736;52.068;6.968;2022-07-23T04:27:58;11.83;;;7.90;;
3443;SDS011;1736;52.068;6.968;2022-07-23T04:30:25;11.17;;;7.30;;
3443;SDS011;1736;52.068;6.968;2022-07-23T04:32:53;9.40;;;7.00;;
3443;SDS011;1736;52.068;6.968;2022-07-23T04:35:19;9.90;;;8.27;;
3443;SDS011;1736;52.068;6.968;2022-07-23T04:37:46;9.60;;;8.37;;
3443;SDS011;1736;52.068;6.968;2022-07-23T04:40:13;10.50;;;8.73;;
3443;SDS011;1736;52.068;6.968;2022-07-23T04:42:40;12.53;;;10.97;;
3443;SDS011;1736;52.068;6.968;2022-07-23T04:45:07;13.47;;;9.40;;
3443;SDS011;1736;52.068;6.968;2022-07-23T04:47:34;15.07;;;9.20;;
3443;SDS011;1736;52.068;6.968;2022-07-23T04:50:02;14.37;;;9.10;;
3443;SDS011;1736;52.068;6.968;2022-07-23T04:52:28;11.07;;;8.37;;
3443;SDS011;1736;52.068;6.968;2022-07-23T04:54:55;9.97;;;8.17;;
3443;SDS011;1736;52.068;6.968;2022-07-23T04:57:21;8.27;;;7.13;;
3443;SDS011;1736;52.068;6.968;2022-07-23T04:59:48;10.07;;;7.60;;
3443;SDS011;1736;52.068;6.968;2022-07-23T05:02:15;12.27;;;7.73;;
3443;SDS011;1736;52.068;6.968;2022-07-23T05:04:41;7.80;;;7.00;;
3443;SDS011;1736;52.068;6.968;2022-07-23T05:07:09;11.80;;;7.00;;
3443;SDS011;1736;52.068;6.968;2022-07-23T05:09:35;8.30;;;6.57;;
3443;SDS011;1736;52.068;6.968;2022-07-23T05:12:02;13.70;;;7.13;;
3443;SDS011;1736;52.068;6.968;2022-07-23T05:14:29;10.50;;;6.60;;
3443;SDS011;1736;52.068;6.968;2022-07-23T05:16:56;8.70;;;6.77;;
3443;SDS011;1736;52.068;6.968;2022-07-23T05:19:22;15.43;;;7.00;;
3443;SDS011;1736;52.068;6.968;2022-07-23T05:21:49;11.77;;;7.30;;
3443;SDS011;1736;52.068;6.968;2022-07-23T05:24:17;7.67;;;6.60;;
3443;SDS011;1736;52.068;6.968;2022-07-23T05:26:43;11.30;;;6.60;;
3443;SDS011;1736;52.068;6.968;2022-07-23T05:29:10;7.23;;;6.20;;
3443;SDS011;1736;52.068;6.968;2022-07-23T05:31:36;8.60;;;7.10;;
3443;SDS011;1736;52.068;6.968;2022-07-23T05:34:03;10.37;;;6.50;;
3443;SDS011;1736;52.068;6.968;2022-07-23T05:36:30;8.30;;;6.47;;
3443;SDS011;1736;52.068;6.968;2022-07-23T05:38:57;8.20;;;6.27;;
3443;SDS011;1736;52.068;6.968;2022-07-23T05:41:25;7.37;;;6.17;;
3443;SDS011;1736;52.068;6.968;2022-07-23T05:43:52;7.57;;;6.00;;
3443;SDS011;1736;52.068;6.968;2022-07-23T05:46:18;11.43;;;6.97;;
3443;SDS011;1736;52.068;6.968;2022-07-23T05:48:45;8.77;;;5.93;;
3443;SDS011;1736;52.068;6.968;2022-07-23T05:51:18;7.67;;;5.97;;
3443;SDS011;1736;52.068;6.968;2022-07-23T05:53:45;11.23;;;6.70;;
3443;SDS011;1736;52.068;6.968;2022-07-23T05:56:12;8.50;;;5.30;;
3443;SDS011;1736;52.068;6.968;2022-07-23T05:58:40;6.70;;;6.00;;
3443;SDS011;1736;52.068;6.968;2022-07-23T06:01:07;12.90;;;7.00;;
3443;SDS011;1736;52.068;6.968;2022-07-23T06:03:33;7.47;;;6.40;;
3443;SDS011;1736;52.068;6.968;2022-07-23T06:06:00;13.30;;;6.80;;
3443;SDS011;1736;52.068;6.968;2022-07-23T06:08:26;10.30;;;6.33;;
3443;SDS011;1736;52.068;6.968;2022-07-23T06:10:53;9.60;;;6.37;;
3443;SDS011;1736;52.068;6.968;2022-07-23T06:13:19;8.47;;;5.97;;
3443;SDS011;1736;52.068;6.968;2022-07-23T06:15:48;9.87;;;6.17;;
3443;SDS011;1736;52.068;6.968;2022-07-23T06:18:14;8.27;;;5.40;;
3443;SDS011;1736;52.068;6.968;2022-07-23T06:20:41;6.03;;;5.30;;
3443;SDS011;1736;52.068;6.968;2022-07-23T06:23:07;10.10;;;5.93;;
3443;SDS011;1736;52.068;6.968;2022-07-23T06:25:34;6.97;;;5.17;;
3443;SDS011;1736;52.068;6.968;2022-07-23T06:28:00;9.73;;;5.00;;
3443;SDS011;1736;52.068;6.968;2022-07-23T06:30:27;8.30;;;4.80;;
3443;SDS011;1736;52.068;6.968;2022-07-23T06:32:55;4.53;;;3.47;;
3443;SDS011;1736;52.068;6.968;2022-07-23T06:35:21;4.33;;;3.37;;
3443;SDS011;1736;52.068;6.968;2022-07-23T06:37:48;5.63;;;3.47;;
3443;SDS011;1736;52.068;6.968;2022-07-23T06:40:14;7.63;;;3.50;;
3443;SDS011;1736;52.068;6.968;2022-07-23T06:42:41;4.87;;;3.20;;
3443;SDS011;1736;52.068;6.968;2022-07-23T06:45:08;4.67;;;3.13;;
3443;SDS011;1736;52.068;6.968;2022-07-23T06:47:35;7.20;;;3.40;;
3443;SDS011;1736;52.068;6.968;2022-07-23T06:50:03;4.83;;;2.77;;
3443;SDS011;1736;52.068;6.968;2022-07-23T06:52:30;10.33;;;3.70;;
3443;SDS011;1736;52.068;6.968;2022-07-23T06:54:57;5.07;;;4.17;;
3443;SDS011;1736;52.068;6.968;2022-07-23T06:57:23;6.43;;;4.23;;
3443;SDS011;1736;52.068;6.968;2022-07-23T06:59:50;10.50;;;4.40;;
3443;SDS011;1736;52.068;6.968;2022-07-23T07:02:17;5.07;;;3.47;;
3443;SDS011;1736;52.068;6.968;2022-07-23T07:04:44;5.37;;;3.80;;
3443;SDS011;1736;52.068;6.968;2022-07-23T07:07:12;4.10;;;3.37;;
3443;SDS011;1736;52.068;6.968;2022-07-23T07:09:38;6.90;;;3.33;;
3443;SDS011;1736;52.068;6.968;2022-07-23T07:12:05;7.10;;;3.80;;
3443;SDS011;1736;52.068;6.968;2022-07-23T07:14:32;7.37;;;3.93;;
3443;SDS011;1736;52.068;6.968;2022-07-23T07:16:58;4.80;;;3.80;;
3443;SDS011;1736;52.068;6.968;2022-07-23T07:19:25;4.30;;;3.43;;
3443;SDS011;1736;52.068;6.968;2022-07-23T07:21:51;4.63;;;3.43;;
3443;SDS011;1736;52.068;6.968;2022-07-23T07:24:19;4.93;;;3.10;;
3443;SDS011;1736;52.068;6.968;2022-07-23T07:26:46;5.50;;;3.40;;
3443;SDS011;1736;52.068;6.968;2022-07-23T07:29:12;4.07;;;3.77;;
3443;SDS011;1736;52.068;6.968;2022-07-23T07:31:39;5.70;;;3.50;;
3443;SDS011;1736;52.068;6.968;2022-07-23T07:34:05;3.73;;;3.30;;
3443;SDS011;1736;52.068;6.968;2022-07-23T07:36:32;5.93;;;3.60;;
3443;SDS011;1736;52.068;6.968;2022-07-23T07:39:00;6.37;;;3.50;;
3443;SDS011;1736;52.068;6.968;2022-07-23T07:41:28;7.30;;;3.47;;
3443;SDS011;1736;52.068;6.968;2022-07-23T07:43:54;7.80;;;3.10;;
3443;SDS011;1736;52.068;6.968;2022-07-23T07:46:21;3.40;;;3.17;;
3443;SDS011;1736;52.068;6.968;2022-07-23T07:48:49;3.53;;;3.13;;
3443;SDS011;1736;52.068;6.968;2022-07-23T07:51:15;3.67;;;3.10;;
3443;SDS011;1736;52.068;6.968;2022-07-23T07:53:42;5.23;;;3.00;;
3443;SDS011;1736;52.068;6.968;2022-07-23T07:56:09;5.20;;;2.97;;
3443;SDS011;1736;52.068;6.968;2022-07-23T07:58:37;4.13;;;3.10;;
3443;SDS011;1736;52.068;6.968;2022-07-23T08:01:03;4.43;;;3.13;;
3443;SDS011;1736;52.068;6.968;2022-07-23T08:03:30;5.07;;;3.10;;
3443;SDS011;1736;52.068;6.968;2022-07-23T08:05:57;4.03;;;2.77;;
3443;SDS011;1736;52.068;6.968;2022-07-23T08:08:23;4.57;;;2.43;;
3443;SDS011;1736;52.068;6.968;2022-07-23T08:10:50;4.23;;;2.93;;
3443;SDS011;1736;52.068;6.968;2022-07-23T08:13:16;2.70;;;2.50;;
3443;SDS011;1736;52.068;6.968;2022-07-23T08:15:44;3.67;;;2.63;;
3443;SDS011;1736;52.068;6.968;2022-07-23T08:18:11;4.83;;;2.60;;
3443;SDS011;1736;52.068;6.968;2022-07-23T08:20:38;6.70;;;2.80;;
3443;SDS011;1736;52.068;6.968;2022-07-23T08:23:05;6.40;;;2.40;;
3443;SDS011;1736;52.068;6.968;2022-07-23T08:25:33;3.60;;;2.07;;
3443;SDS011;1736;52.068;6.968;2022-07-23T08:28:02;5.80;;;2.30;;
3443;SDS011;1736;52.068;6.968;2022-07-23T08:30:31;3.77;;;2.23;;
3443;SDS011;1736;52.068;6.968;2022-07-23T08:33:00;4.37;;;2.40;;
3443;SDS011;1736;52.068;6.968;2022-07-23T08:35:28;2.23;;;2.00;;
3443;SDS011;1736;52.068;6.968;2022-07-23T08:37:57;2.80;;;1.87;;
3443;SDS011;1736;52.068;6.968;2022-07-23T08:40:25;2.30;;;2.00;;
3443;SDS011;1736;52.068;6.968;2022-07-23T08:42:53;4.30;;;2.40;;
3443;SDS011;1736;52.068;6.968;2022-07-23T08:45:20;3.53;;;1.80;;
3443;SDS011;1736;52.068;6.968;2022-07-23T08:47:49;3.83;;;1.60;;
3443;SDS011;1736;52.068;6.968;2022-07-23T08:50:18;3.63;;;2.07;;
3443;SDS011;1736;52.068;6.968;2022-07-23T08:52:46;4.60;;;2.20;;
3443;SDS011;1736;52.068;6.968;2022-07-23T08:55:15;4.03;;;2.10;;
3443;SDS011;1736;52.068;6.968;2022-07-23T08:57:42;4.07;;;2.30;;
3443;SDS011;1736;52.068;6.968;2022-07-23T09:00:09;2.23;;;2.03;;
3443;SDS011;1736;52.068;6.968;2022-07-23T09:02:40;2.10;;;1.90;;
3443;SDS011;1736;52.068;6.968;2022-07-23T09:05:07;2.30;;;1.70;;
3443;SDS011;1736;52.068;6.968;2022-07-23T09:07:37;2.13;;;2.03;;
3443;SDS011;1736;52.068;6.968;2022-07-23T09:10:05;4.03;;;2.80;;
3443;SDS011;1736;52.068;6.968;2022-07-23T09:12:33;2.33;;;2.13;;
3443;SDS011;1736;52.068;6.968;2022-07-23T09:15:04;3.97;;;2.53;;
3443;SDS011;1736;52.068;6.968;2022-07-23T09:17:36;4.43;;;2.20;;
3443;SDS011;1736;52.068;6.968;2022-07-23T09:20:08;2.00;;;1.90;;
3443;SDS011;1736;52.068;6.968;2022-07-23T09:22:37;2.43;;;2.23;;
3443;SDS011;1736;52.068;6.968;2022-07-23T09:25:04;8.50;;;2.10;;
3443;SDS011;1736;52.068;6.968;2022-07-23T09:27:46;5.20;;;3.13;;
3443;SDS011;1736;52.068;6.968;2022-07-23T09:30:18;2.30;;;2.10;;
3443;SDS011;1736;52.068;6.968;2022-07-23T09:32:51;4.80;;;2.50;;
3443;SDS011;1736;52.068;6.968;2022-07-23T09:35:43;3.67;;;2.50;;
3443;SDS011;1736;52.068;6.968;2022-07-23T09:38:12;1.90;;;1.80;;
3443;SDS011;1736;52.068;6.968;2022-07-23T09:40:38;3.97;;;2.70;;
3443;SDS011;1736;52.068;6.968;2022-07-23T09:43:05;11.13;;;2.20;;
3443;SDS011;1736;52.068;6.968;2022-07-23T09:45:31;4.07;;;2.07;;
3443;SDS011;1736;52.068;6.968;2022-07-23T09:48:09;4.87;;;1.90;;
3443;SDS011;1736;52.068;6.968;2022-07-23T09:50:37;2.00;;;1.90;;
3443;SDS011;1736;52.068;6.968;2022-07-23T09:53:03;2.37;;;2.00;;
3443;SDS011;1736;52.068;6.968;2022-07-23T09:55:32;2.50;;;2.03;;
3443;SDS011;1736;52.068;6.968;2022-07-23T09:58:02;4.37;;;2.00;;
3443;SDS011;1736;52.068;6.968;2022-07-23T10:00:29;2.30;;;2.10;;
3443;SDS011;1736;52.068;6.968;2022-07-23T10:02:57;3.73;;;2.00;;
3443;SDS011;1736;52.068;6.968;2022-07-23T10:05:25;2.07;;;1.90;;
3443;SDS011;1736;52.068;6.968;2022-07-23T10:07:52;3.90;;;1.87;;
3443;SDS011;1736;52.068;6.968;2022-07-23T10:10:19;4.50;;;1.80;;
3443;SDS011;1736;52.068;6.968;2022-07-23T10:12:49;3.47;;;2.30;;
3443;SDS011;1736;52.068;6.968;2022-07-23T10:15:45;2.17;;;1.97;;
3443;SDS011;1736;52.068;6.968;2022-07-23T10:18:12;1.77;;;1.67;;
3443;SDS011;1736;52.068;6.968;2022-07-23T10:20:39;4.80;;;1.77;;
3443;SDS011;1736;52.068;6.968;2022-07-23T10:23:09;3.87;;;2.37;;
3443;SDS011;1736;52.068;6.968;2022-07-23T10:25:43;2.43;;;2.20;;
3443;SDS011;1736;52.068;6.968;2022-07-23T10:28:29;3.93;;;2.30;;
3443;SDS011;1736;52.068;6.968;2022-07-23T10:31:14;4.33;;;2.43;;
3443;SDS011;1736;52.068;6.968;2022-07-23T10:33:53;1.77;;;1.67;;
3443;SDS011;1736;52.068;6.968;2022-07-23T10:36:23;2.90;;;2.00;;
3443;SDS011;1736;52.068;6.968;2022-07-23T10:38:56;7.63;;;2.67;;
3443;SDS011;1736;52.068;6.968;2022-07-23T10:41:30;2.20;;;2.00;;
3443;SDS011;1736;52.068;6.968;2022-07-23T10:44:10;4.43;;;2.00;;
3443;SDS011;1736;52.068;6.968;2022-07-23T10:46:54;1.90;;;1.80;;
3443;SDS011;1736;52.068;6.968;2022-07-23T10:49:41;2.57;;;1.93;;
3443;SDS011;1736;52.068;6.968;2022-07-23T10:52:15;1.87;;;1.77;;
3443;SDS011;1736;52.068;6.968;2022-07-23T10:54:42;1.83;;;1.73;;
3443;SDS011;1736;52.068;6.968;2022-07-23T10:57:10;5.60;;;2.10;;
3443;SDS011;1736;52.068;6.968;2022-07-23T11:02:52;4.77;;;2.03;;
3443;SDS011;1736;52.068;6.968;2022-07-23T11:05:20;2.90;;;1.90;;
3443;SDS011;1736;52.068;6.968;2022-07-23T11:10:49;5.40;;;2.10;;
3443;SDS011;1736;52.068;6.968;2022-07-23T11:13:38;2.30;;;2.10;;
3443;SDS011;1736;52.068;6.968;2022-07-23T11:16:08;2.57;;;2.00;;
3443;SDS011;1736;52.068;6.968;2022-07-23T11:18:53;1.93;;;1.60;;
3443;SDS011;1736;52.068;6.968;2022-07-23T11:21:43;3.07;;;2.10;;
3443;SDS011;1736;52.068;6.968;2022-07-23T11:24:17;2.13;;;1.90;;
3443;SDS011;1736;52.068;6.968;2022-07-23T11:26:47;2.37;;;2.17;;
3443;SDS011;1736;52.068;6.968;2022-07-23T11:29:45;3.13;;;2.03;;
3443;SDS011;1736;52.068;6.968;2022-07-23T11:38:02;2.87;;;2.03;;
3443;SDS011;1736;52.068;6.968;2022-07-23T11:40:30;2.57;;;1.90;;
3443;SDS011;1736;52.068;6.968;2022-07-23T11:42:58;3.03;;;1.90;;
3443;SDS011;1736;52.068;6.968;2022-07-23T11:45:29;8.10;;;2.57;;
3443;SDS011;1736;52.068;6.968;2022-07-23T11:47:57;1.90;;;1.80;;
3443;SDS011;1736;52.068;6.968;2022-07-23T11:50:24;3.80;;;2.10;;
3443;SDS011;1736;52.068;6.968;2022-07-23T11:52:52;2.10;;;1.90;;
3443;SDS011;1736;52.068;6.968;2022-07-23T11:55:20;3.93;;;2.33;;
3443;SDS011;1736;52.068;6.968;2022-07-23T11:57:46;2.67;;;1.90;;
3443;SDS011;1736;52.068;6.968;2022-07-23T12:00:14;2.60;;;2.40;;
3443;SDS011;1736;52.068;6.968;2022-07-23T12:02:43;3.53;;;2.20;;
3443;SDS011;1736;52.068;6.968;2022-07-23T12:05:12;2.63;;;2.43;;
3443;SDS011;1736;52.068;6.968;2022-07-23T12:07:40;2.53;;;2.00;;
3443;SDS011;1736;52.068;6.968;2022-07-23T12:10:11;2.90;;;2.33;;
3443;SDS011;1736;52.068;6.968;2022-07-23T12:12:41;3.60;;;2.20;;
3443;SDS011;1736;52.068;6.968;2022-07-23T12:15:08;3.33;;;2.40;;
3443;SDS011;1736;52.068;6.968;2022-07-23T12:17:37;5.00;;;2.50;;
3443;SDS011;1736;52.068;6.968;2022-07-23T12:20:06;3.83;;;2.30;;
3443;SDS011;1736;52.068;6.968;2022-07-23T12:22:36;2.77;;;2.57;;
3443;SDS011;1736;52.068;6.968;2022-07-23T12:25:05;5.27;;;2.77;;
3443;SDS011;1736;52.068;6.968;2022-07-23T12:27:35;3.40;;;2.33;;
3443;SDS011;1736;52.068;6.968;2022-07-23T12:30:17;2.57;;;2.37;;
3443;SDS011;1736;52.068;6.968;2022-07-23T12:32:49;4.37;;;2.20;;
3443;SDS011;1736;52.068;6.968;2022-07-23T12:35:17;2.63;;;2.43;;
3443;SDS011;1736;52.068;6.968;2022-07-23T12:37:45;3.33;;;2.33;;
3443;SDS011;1736;52.068;6.968;2022-07-23T12:40:19;4.20;;;2.10;;
3443;SDS011;1736;52.068;6.968;2022-07-23T12:42:49;3.20;;;2.90;;
3443;SDS011;1736;52.068;6.968;2022-07-23T12:45:17;2.53;;;2.30;;
3443;SDS011;1736;52.068;6.968;2022-07-23T12:47:54;3.70;;;2.83;;
3443;SDS011;1736;52.068;6.968;2022-07-23T12:50:34;5.50;;;2.40;;
3443;SDS011;1736;52.068;6.968;2022-07-23T12:53:03;3.97;;;2.40;;
3443;SDS011;1736;52.068;6.968;2022-07-23T12:55:31;2.60;;;2.40;;
3443;SDS011;1736;52.068;6.968;2022-07-23T12:58:09;3.07;;;2.77;;
3443;SDS011;1736;52.068;6.968;2022-07-23T13:00:54;3.00;;;2.27;;
3443;SDS011;1736;52.068;6.968;2022-07-23T13:03:24;5.47;;;2.37;;
3443;SDS011;1736;52.068;6.968;2022-07-23T13:05:52;3.33;;;3.00;;
3443;SDS011;1736;52.068;6.968;2022-07-23T13:08:19;4.30;;;2.37;;
3443;SDS011;1736;52.068;6.968;2022-07-23T13:10:46;2.47;;;2.27;;
3443;SDS011;1736;52.068;6.968;2022-07-23T13:13:18;5.50;;;2.97;;
3443;SDS011;1736;52.068;6.968;2022-07-23T13:15:46;2.43;;;2.20;;
3443;SDS011;1736;52.068;6.968;2022-07-23T13:18:12;3.97;;;2.60;;
3443;SDS011;1736;52.068;6.968;2022-07-23T13:20:39;3.43;;;2.70;;
3443;SDS011;1736;52.068;6.968;2022-07-23T13:23:06;6.30;;;3.00;;
3443;SDS011;1736;52.068;6.968;2022-07-23T13:25:33;3.73;;;2.80;;
3443;SDS011;1736;52.068;6.968;2022-07-23T13:27:59;4.80;;;2.50;;
3443;SDS011;1736;52.068;6.968;2022-07-23T13:30:27;3.10;;;2.40;;
3443;SDS011;1736;52.068;6.968;2022-07-23T13:32:54;3.80;;;2.40;;
3443;SDS011;1736;52.068;6.968;2022-07-23T13:35:21;3.43;;;2.67;;
3443;SDS011;1736;52.068;6.968;2022-07-23T13:37:47;4.60;;;2.40;;
3443;SDS011;1736;52.068;6.968;2022-07-23T13:40:14;2.70;;;2.50;;
3443;SDS011;1736;52.068;6.968;2022-07-23T13:42:41;3.00;;;2.70;;
3443;SDS011;1736;52.068;6.968;2022-07-23T13:45:08;3.30;;;2.53;;
3443;SDS011;1736;52.068;6.968;2022-07-23T13:47:35;7.37;;;2.90;;
3443;SDS011;1736;52.068;6.968;2022-07-23T13:50:02;3.07;;;2.40;;
3443;SDS011;1736;52.068;6.968;2022-07-23T13:52:30;4.83;;;2.93;;
3443;SDS011;1736;52.068;6.968;2022-07-23T13:54:58;3.17;;;2.87;;
3443;SDS011;1736;52.068;6.968;2022-07-23T13:57:24;3.67;;;2.70;;
3443;SDS011;1736;52.068;6.968;2022-07-23T13:59:51;6.43;;;2.63;;
3443;SDS011;1736;52.068;6.968;2022-07-23T14:02:17;2.70;;;2.50;;
3443;SDS011;1736;52.068;6.968;2022-07-23T14:04:45;2.43;;;2.23;;
3443;SDS011;1736;52.068;6.968;2022-07-23T14:07:12;3.30;;;2.50;;
3443;SDS011;1736;52.068;6.968;2022-07-23T14:09:38;3.27;;;2.67;;
3443;SDS011;1736;52.068;6.968;2022-07-23T14:12:05;3.73;;;3.07;;
3443;SDS011;1736;52.068;6.968;2022-07-23T14:14:32;2.70;;;2.50;;
3443;SDS011;1736;52.068;6.968;2022-07-23T14:16:59;4.50;;;3.00;;
3443;SDS011;1736;52.068;6.968;2022-07-23T14:19:25;3.87;;;2.53;;
3443;SDS011;1736;52.068;6.968;2022-07-23T14:21:53;4.27;;;2.60;;
3443;SDS011;1736;52.068;6.968;2022-07-23T14:24:20;3.50;;;2.90;;
3443;SDS011;1736;52.068;6.968;2022-07-23T14:26:46;2.53;;;2.33;;
3443;SDS011;1736;52.068;6.968;2022-07-23T14:29:13;4.40;;;3.13;;
3443;SDS011;1736;52.068;6.968;2022-07-23T14:31:39;3.17;;;2.87;;
3443;SDS011;1736;52.068;6.968;2022-07-23T14:34:06;3.40;;;2.83;;
3443;SDS011;1736;52.068;6.968;2022-07-23T14:36:33;3.20;;;2.90;;
3443;SDS011;1736;52.068;6.968;2022-07-23T14:39:01;3.50;;;2.60;;
3443;SDS011;1736;52.068;6.968;2022-07-23T14:41:27;2.90;;;2.70;;
3443;SDS011;1736;52.068;6.968;2022-07-23T14:43:54;2.63;;;2.30;;
3443;SDS011;1736;52.068;6.968;2022-07-23T14:46:20;3.10;;;2.77;;
3443;SDS011;1736;52.068;6.968;2022-07-23T14:48:47;5.30;;;3.03;;
3443;SDS011;1736;52.068;6.968;2022-07-23T14:51:14;3.00;;;2.80;;
3443;SDS011;1736;52.068;6.968;2022-07-23T14:53:40;4.07;;;2.90;;
3443;SDS011;1736;52.068;6.968;2022-07-23T14:56:08;2.70;;;2.43;;
3443;SDS011;1736;52.068;6.968;2022-07-23T14:58:35;3.00;;;2.80;;
3443;SDS011;1736;52.068;6.968;2022-07-23T15:01:01;7.83;;;2.57;;
3443;SDS011;1736;52.068;6.968;2022-07-23T15:03:28;3.97;;;2.73;;
3443;SDS011;1736;52.068;6.968;2022-07-23T15:05:54;3.07;;;2.77;;
3443;SDS011;1736;52.068;6.968;2022-07-23T15:08:21;8.90;;;3.00;;
3443;SDS011;1736;52.068;6.968;2022-07-23T15:10:47;3.13;;;2.83;;
3443;SDS011;1736;52.068;6.968;2022-07-23T15:13:15;3.00;;;2.70;;
3443;SDS011;1736;52.068;6.968;2022-07-23T15:15:42;3.47;;;3.17;;
3443;SDS011;1736;52.068;6.968;2022-07-23T15:18:09;3.07;;;2.87;;
3443;SDS011;1736;52.068;6.968;2022-07-23T15:20:36;2.93;;;2.73;;
3443;SDS011;1736;52.068;6.968;2022-07-23T15:23:03;7.03;;;3.47;;
3443;SDS011;1736;52.068;6.968;2022-07-23T15:25:29;3.63;;;2.90;;
3443;SDS011;1736;52.068;6.968;2022-07-23T15:27:56;3.90;;;2.73;;
3443;SDS011;1736;52.068;6.968;2022-07-23T15:30:25;4.37;;;2.80;;